sensor_id;sensor_type;location;lat;lon;timestamp;pressure;altitude;pressure_sealevel;temperature;humidity
64095;BME280;50353;51.420;5.682;2022-09-09T00:00:20;100556.41;;;16.57;84.37
64095;BME280;50353;51.420;5.682;2022-09-09T00:03:17;100540.13;;;16.50;84.92
64095;BME280;50353;51.420;5.682;2022-09-09T00:06:14;100546.59;;;16.67;83.39
64095;BME280;50353;51.420;5.682;2022-09-09T00:11:21;100529.31;;;15.92;87.48
64095;BME280;50353;51.420;5.682;2022-09-09T00:13:52;100536.81;;;16.08;86.12
64095;BME280;50353;51.420;5.682;2022-09-09T00:16:24;100530.75;;;16.05;86.97
64095;BME280;50353;51.420;5.682;2022-09-09T00:19:09;100523.97;;;16.42;84.53
64095;BME280;50353;51.420;5.682;2022-09-09T00:21:48;100527.41;;;16.13;85.49
64095;BME280;50353;51.420;5.682;2022-09-09T00:24:34;100537.88;;;16.46;84.33
64095;BME280;50353;51.420;5.682;2022-09-09T00:27:11;100521.44;;;16.41;84.20
64095;BME280;50353;51.420;5.682;2022-09-09T00:29:41;100526.63;;;16.42;84.56
64095;BME280;50353;51.420;5.682;2022-09-09T00:32:16;100527.13;;;16.16;85.38
64095;BME280;50353;51.420;5.682;2022-09-09T00:34:55;100531.09;;;16.32;84.59
64095;BME280;50353;51.420;5.682;2022-09-09T00:37:24;100532.38;;;16.37;84.16
64095;BME280;50353;51.420;5.682;2022-09-09T00:39:51;100539.19;;;16.11;85.54
64095;BME280;50353;51.420;5.682;2022-09-09T00:42:43;100530.91;;;16.14;85.35
64095;BME280;50353;51.420;5.682;2022-09-09T00:45:24;100521.81;;;16.36;83.98
64095;BME280;50353;51.420;5.682;2022-09-09T00:47:53;100515.63;;;16.16;84.18
64095;BME280;50353;51.420;5.682;2022-09-09T00:56:14;100515.22;;;16.40;83.31
64095;BME280;50353;51.420;5.682;2022-09-09T00:58:56;100505.38;;;16.11;84.87
64095;BME280;50353;51.420;5.682;2022-09-09T01:01:25;100510.69;;;16.11;84.64
64095;BME280;50353;51.420;5.682;2022-09-09T01:03:55;100509.06;;;16.30;83.66
64095;BME280;50353;51.420;5.682;2022-09-09T01:06:30;100519.94;;;16.07;84.81
64095;BME280;50353;51.420;5.682;2022-09-09T01:09:22;100520.66;;;15.99;85.23
64095;BME280;50353;51.420;5.682;2022-09-09T01:12:14;100519.47;;;15.92;85.16
64095;BME280;50353;51.420;5.682;2022-09-09T01:14:54;100510.97;;;15.77;85.58
64095;BME280;50353;51.420;5.682;2022-09-09T01:17:23;100515.19;;;16.11;84.65
64095;BME280;50353;51.420;5.682;2022-09-09T01:22:40;100525.44;;;16.15;84.57
64095;BME280;50353;51.420;5.682;2022-09-09T01:25:27;100513.81;;;16.16;84.73
64095;BME280;50353;51.420;5.682;2022-09-09T01:27:56;100515.22;;;16.20;84.53
64095;BME280;50353;51.420;5.682;2022-09-09T01:30:25;100506.09;;;16.23;83.96
64095;BME280;50353;51.420;5.682;2022-09-09T01:32:55;100498.59;;;15.97;84.92
64095;BME280;50353;51.420;5.682;2022-09-09T01:38:14;100513.63;;;16.08;84.74
64095;BME280;50353;51.420;5.682;2022-09-09T01:40:40;100503.28;;;16.34;83.34
64095;BME280;50353;51.420;5.682;2022-09-09T01:43:05;100504.13;;;16.25;83.68
64095;BME280;50353;51.420;5.682;2022-09-09T01:45:32;100494.41;;;16.04;84.83
64095;BME280;50353;51.420;5.682;2022-09-09T01:47:57;100498.91;;;16.04;85.33
64095;BME280;50353;51.420;5.682;2022-09-09T01:50:23;100499.84;;;15.93;85.43
64095;BME280;50353;51.420;5.682;2022-09-09T01:52:52;100490.94;;;16.23;84.07
64095;BME280;50353;51.420;5.682;2022-09-09T01:55:24;100488.81;;;16.17;84.29
64095;BME280;50353;51.420;5.682;2022-09-09T01:58:26;100496.84;;;16.27;84.48
64095;BME280;50353;51.420;5.682;2022-09-09T02:01:23;100499.78;;;16.24;84.53
64095;BME280;50353;51.420;5.682;2022-09-09T02:03:56;100490.47;;;15.99;86.16
64095;BME280;50353;51.420;5.682;2022-09-09T02:08:59;100492.91;;;16.21;84.97
64095;BME280;50353;51.420;5.682;2022-09-09T02:11:27;100490.25;;;16.41;84.32
64095;BME280;50353;51.420;5.682;2022-09-09T02:14:13;100488.69;;;15.78;87.61
64095;BME280;50353;51.420;5.682;2022-09-09T02:16:50;100480.22;;;15.94;86.77
64095;BME280;50353;51.420;5.682;2022-09-09T02:19:21;100477.44;;;16.15;85.72
64095;BME280;50353;51.420;5.682;2022-09-09T02:21:52;100477.00;;;16.00;85.89
64095;BME280;50353;51.420;5.682;2022-09-09T02:24:18;100481.06;;;16.04;86.09
64095;BME280;50353;51.420;5.682;2022-09-09T02:26:46;100478.63;;;15.82;87.06
64095;BME280;50353;51.420;5.682;2022-09-09T02:29:23;100480.53;;;16.20;85.28
64095;BME280;50353;51.420;5.682;2022-09-09T02:31:51;100484.81;;;15.82;87.59
64095;BME280;50353;51.420;5.682;2022-09-09T02:34:21;100476.59;;;16.05;86.10
64095;BME280;50353;51.420;5.682;2022-09-09T02:36:49;100484.66;;;15.84;87.39
64095;BME280;50353;51.420;5.682;2022-09-09T02:39:16;100477.69;;;15.93;86.68
64095;BME280;50353;51.420;5.682;2022-09-09T02:41:42;100474.75;;;15.65;88.09
64095;BME280;50353;51.420;5.682;2022-09-09T02:44:12;100479.56;;;15.71;88.25
64095;BME280;50353;51.420;5.682;2022-09-09T02:47:09;100473.94;;;16.05;86.14
64095;BME280;50353;51.420;5.682;2022-09-09T02:52:20;100477.19;;;16.18;85.08
64095;BME280;50353;51.420;5.682;2022-09-09T02:54:48;100472.84;;;15.77;87.68
64095;BME280;50353;51.420;5.682;2022-09-09T02:57:28;100472.06;;;15.86;87.37
64095;BME280;50353;51.420;5.682;2022-09-09T02:59:58;100472.34;;;15.93;86.86
64095;BME280;50353;51.420;5.682;2022-09-09T03:02:24;100470.34;;;15.54;88.78
64095;BME280;50353;51.420;5.682;2022-09-09T03:04:50;100472.53;;;15.39;89.64
64095;BME280;50353;51.420;5.682;2022-09-09T03:07:17;100475.25;;;15.80;88.03
64095;BME280;50353;51.420;5.682;2022-09-09T03:09:43;100472.84;;;15.77;88.17
64095;BME280;50353;51.420;5.682;2022-09-09T03:12:08;100467.03;;;15.93;87.61
64095;BME280;50353;51.420;5.682;2022-09-09T03:14:35;100469.03;;;15.69;88.74
64095;BME280;50353;51.420;5.682;2022-09-09T03:17:00;100479.72;;;16.30;86.12
64095;BME280;50353;51.420;5.682;2022-09-09T03:19:27;100477.94;;;15.89;88.58
64095;BME280;50353;51.420;5.682;2022-09-09T03:21:53;100480.09;;;15.75;89.23
64095;BME280;50353;51.420;5.682;2022-09-09T03:24:18;100475.41;;;15.88;89.25
64095;BME280;50353;51.420;5.682;2022-09-09T03:26:43;100479.91;;;15.87;89.70
64095;BME280;50353;51.420;5.682;2022-09-09T03:29:12;100476.53;;;15.85;89.24
64095;BME280;50353;51.420;5.682;2022-09-09T03:31:38;100477.41;;;15.96;89.10
64095;BME280;50353;51.420;5.682;2022-09-09T03:34:04;100483.00;;;15.83;89.52
64095;BME280;50353;51.420;5.682;2022-09-09T03:36:30;100484.44;;;16.07;88.39
64095;BME280;50353;51.420;5.682;2022-09-09T03:38:55;100486.09;;;15.98;89.15
64095;BME280;50353;51.420;5.682;2022-09-09T03:41:22;100491.50;;;16.27;87.48
64095;BME280;50353;51.420;5.682;2022-09-09T03:43:51;100492.69;;;15.94;89.85
64095;BME280;50353;51.420;5.682;2022-09-09T03:46:18;100494.31;;;15.54;92.49
64095;BME280;50353;51.420;5.682;2022-09-09T03:48:43;100495.22;;;15.64;91.64
64095;BME280;50353;51.420;5.682;2022-09-09T03:51:09;100496.75;;;15.98;89.81
64095;BME280;50353;51.420;5.682;2022-09-09T03:53:35;100501.84;;;16.01;90.27
64095;BME280;50353;51.420;5.682;2022-09-09T03:56:03;100493.19;;;15.78;90.79
64095;BME280;50353;51.420;5.682;2022-09-09T03:58:29;100491.34;;;15.47;93.27
64095;BME280;50353;51.420;5.682;2022-09-09T04:03:24;100494.69;;;16.11;88.49
64095;BME280;50353;51.420;5.682;2022-09-09T04:05:53;100484.31;;;16.08;90.03
64095;BME280;50353;51.420;5.682;2022-09-09T04:08:20;100489.25;;;16.22;89.04
64095;BME280;50353;51.420;5.682;2022-09-09T04:10:47;100476.75;;;15.72;92.67
64095;BME280;50353;51.420;5.682;2022-09-09T04:13:13;100488.38;;;16.12;89.87
64095;BME280;50353;51.420;5.682;2022-09-09T04:15:40;100482.56;;;15.87;91.53
64095;BME280;50353;51.420;5.682;2022-09-09T04:18:05;100477.69;;;15.93;90.57
64095;BME280;50353;51.420;5.682;2022-09-09T04:20:31;100485.19;;;15.78;91.80
64095;BME280;50353;51.420;5.682;2022-09-09T04:22:57;100483.63;;;16.16;89.71
64095;BME280;50353;51.420;5.682;2022-09-09T04:25:22;100476.84;;;16.02;90.43
64095;BME280;50353;51.420;5.682;2022-09-09T04:27:56;100472.38;;;16.12;90.35
64095;BME280;50353;51.420;5.682;2022-09-09T04:30:22;100474.91;;;16.14;89.83
64095;BME280;50353;51.420;5.682;2022-09-09T04:32:47;100474.69;;;16.36;88.67
64095;BME280;50353;51.420;5.682;2022-09-09T04:35:12;100471.56;;;16.41;87.42
64095;BME280;50353;51.420;5.682;2022-09-09T04:37:38;100474.25;;;16.31;87.85
64095;BME280;50353;51.420;5.682;2022-09-09T04:40:04;100469.56;;;16.04;90.33
64095;BME280;50353;51.420;5.682;2022-09-09T04:42:29;100471.56;;;16.12;90.17
64095;BME280;50353;51.420;5.682;2022-09-09T04:44:55;100466.63;;;16.07;90.34
64095;BME280;50353;51.420;5.682;2022-09-09T04:47:20;100464.59;;;15.80;92.39
64095;BME280;50353;51.420;5.682;2022-09-09T04:49:46;100457.47;;;15.80;92.40
64095;BME280;50353;51.420;5.682;2022-09-09T04:52:12;100458.78;;;16.15;90.46
64095;BME280;50353;51.420;5.682;2022-09-09T04:54:37;100452.91;;;15.71;92.00
64095;BME280;50353;51.420;5.682;2022-09-09T04:57:04;100450.25;;;15.40;94.42
64095;BME280;50353;51.420;5.682;2022-09-09T04:59:30;100452.63;;;15.74;91.90
64095;BME280;50353;51.420;5.682;2022-09-09T05:01:55;100452.34;;;15.77;91.55
64095;BME280;50353;51.420;5.682;2022-09-09T05:04:21;100457.34;;;15.92;91.08
64095;BME280;50353;51.420;5.682;2022-09-09T05:06:46;100452.16;;;15.59;91.97
64095;BME280;50353;51.420;5.682;2022-09-09T05:09:12;100456.03;;;15.45;93.87
64095;BME280;50353;51.420;5.682;2022-09-09T05:11:37;100460.88;;;15.61;92.82
64095;BME280;50353;51.420;5.682;2022-09-09T05:14:03;100460.38;;;15.46;93.83
64095;BME280;50353;51.420;5.682;2022-09-09T05:16:29;100454.03;;;15.78;92.28
64095;BME280;50353;51.420;5.682;2022-09-09T05:18:55;100459.03;;;15.93;90.74
64095;BME280;50353;51.420;5.682;2022-09-09T05:21:22;100461.44;;;15.75;91.69
64095;BME280;50353;51.420;5.682;2022-09-09T05:23:48;100462.16;;;15.77;91.79
64095;BME280;50353;51.420;5.682;2022-09-09T05:26:16;100454.97;;;15.98;90.02
64095;BME280;50353;51.420;5.682;2022-09-09T05:28:41;100464.97;;;15.75;91.38
64095;BME280;50353;51.420;5.682;2022-09-09T05:31:09;100459.34;;;15.68;92.27
64095;BME280;50353;51.420;5.682;2022-09-09T05:33:36;100458.88;;;15.53;92.54
64095;BME280;50353;51.420;5.682;2022-09-09T05:36:07;100454.47;;;15.74;90.88
64095;BME280;50353;51.420;5.682;2022-09-09T05:38:33;100458.44;;;15.58;92.15
64095;BME280;50353;51.420;5.682;2022-09-09T05:40:59;100447.81;;;15.27;94.19
64095;BME280;50353;51.420;5.682;2022-09-09T05:43:26;100450.38;;;15.69;92.87
64095;BME280;50353;51.420;5.682;2022-09-09T05:46:03;100449.47;;;15.49;92.87
64095;BME280;50353;51.420;5.682;2022-09-09T05:48:30;100451.50;;;15.77;92.55
64095;BME280;50353;51.420;5.682;2022-09-09T05:50:57;100459.78;;;15.74;92.43
64095;BME280;50353;51.420;5.682;2022-09-09T05:53:22;100470.28;;;16.06;88.43
64095;BME280;50353;51.420;5.682;2022-09-09T05:55:47;100471.28;;;16.25;88.85
64095;BME280;50353;51.420;5.682;2022-09-09T05:58:13;100474.91;;;16.14;89.78
64095;BME280;50353;51.420;5.682;2022-09-09T06:00:39;100469.88;;;16.30;88.44
64095;BME280;50353;51.420;5.682;2022-09-09T06:03:05;100474.38;;;16.30;87.32
64095;BME280;50353;51.420;5.682;2022-09-09T06:05:31;100474.25;;;16.41;85.02
64095;BME280;50353;51.420;5.682;2022-09-09T06:07:56;100481.66;;;16.28;87.82
64095;BME280;50353;51.420;5.682;2022-09-09T06:10:22;100485.59;;;16.23;89.68
64095;BME280;50353;51.420;5.682;2022-09-09T06:12:47;100484.75;;;16.13;89.48
64095;BME280;50353;51.420;5.682;2022-09-09T06:15:13;100480.44;;;16.51;87.89
64095;BME280;50353;51.420;5.682;2022-09-09T06:17:38;100478.03;;;16.78;86.72
64095;BME280;50353;51.420;5.682;2022-09-09T06:20:04;100477.06;;;16.79;87.18
64095;BME280;50353;51.420;5.682;2022-09-09T06:22:30;100479.72;;;16.88;86.72
64095;BME280;50353;51.420;5.682;2022-09-09T06:24:56;100472.84;;;16.47;87.48
64095;BME280;50353;51.420;5.682;2022-09-09T06:27:21;100470.19;;;16.56;88.27
64095;BME280;50353;51.420;5.682;2022-09-09T06:29:46;100474.25;;;16.80;86.92
64095;BME280;50353;51.420;5.682;2022-09-09T06:32:13;100471.31;;;17.03;85.33
64095;BME280;50353;51.420;5.682;2022-09-09T06:34:38;100461.03;;;17.46;84.34
64095;BME280;50353;51.420;5.682;2022-09-09T06:37:03;100464.47;;;17.66;82.21
64095;BME280;50353;51.420;5.682;2022-09-09T06:39:29;100460.78;;;17.39;82.42
64095;BME280;50353;51.420;5.682;2022-09-09T06:41:55;100461.13;;;17.16;83.78
64095;BME280;50353;51.420;5.682;2022-09-09T06:44:20;100465.25;;;17.76;81.08
64095;BME280;50353;51.420;5.682;2022-09-09T06:46:45;100460.16;;;17.55;81.90
64095;BME280;50353;51.420;5.682;2022-09-09T06:49:15;100465.88;;;17.98;79.95
64095;BME280;50353;51.420;5.682;2022-09-09T06:51:40;100459.56;;;18.17;79.13
64095;BME280;50353;51.420;5.682;2022-09-09T06:54:10;100465.84;;;18.62;78.27
64095;BME280;50353;51.420;5.682;2022-09-09T06:56:36;100467.28;;;18.92;76.45
64095;BME280;50353;51.420;5.682;2022-09-09T06:59:06;100460.84;;;18.85;76.32
64095;BME280;50353;51.420;5.682;2022-09-09T07:01:36;100460.09;;;18.92;76.12
64095;BME280;50353;51.420;5.682;2022-09-09T07:04:03;100470.34;;;18.43;77.18
64095;BME280;50353;51.420;5.682;2022-09-09T07:06:35;100462.53;;;19.04;75.80
64095;BME280;50353;51.420;5.682;2022-09-09T07:09:08;100461.63;;;19.21;73.88
64095;BME280;50353;51.420;5.682;2022-09-09T07:11:39;100456.59;;;19.18;73.66
64095;BME280;50353;51.420;5.682;2022-09-09T07:14:05;100467.03;;;19.30;72.76
64095;BME280;50353;51.420;5.682;2022-09-09T07:16:30;100472.81;;;18.90;74.43
64095;BME280;50353;51.420;5.682;2022-09-09T07:18:58;100466.28;;;19.19;73.44
64095;BME280;50353;51.420;5.682;2022-09-09T07:21:25;100468.72;;;19.31;72.56
64095;BME280;50353;51.420;5.682;2022-09-09T07:23:51;100464.84;;;19.33;72.03
64095;BME280;50353;51.420;5.682;2022-09-09T07:26:18;100477.06;;;19.28;72.81
64095;BME280;50353;51.420;5.682;2022-09-09T07:28:45;100469.38;;;19.33;71.27
64095;BME280;50353;51.420;5.682;2022-09-09T07:31:18;100463.22;;;18.70;73.91
64095;BME280;50353;51.420;5.682;2022-09-09T07:33:44;100465.16;;;18.23;76.01
64095;BME280;50353;51.420;5.682;2022-09-09T07:36:15;100463.94;;;18.36;75.82
64095;BME280;50353;51.420;5.682;2022-09-09T07:38:42;100468.69;;;18.60;74.48
64095;BME280;50353;51.420;5.682;2022-09-09T07:41:10;100465.81;;;18.98;73.96
64095;BME280;50353;51.420;5.682;2022-09-09T07:43:39;100463.13;;;18.98;73.82
64095;BME280;50353;51.420;5.682;2022-09-09T07:46:06;100477.59;;;18.87;73.64
64095;BME280;50353;51.420;5.682;2022-09-09T07:48:32;100470.44;;;18.69;74.46
64095;BME280;50353;51.420;5.682;2022-09-09T07:51:09;100485.44;;;18.44;75.04
64095;BME280;50353;51.420;5.682;2022-09-09T07:53:35;100476.72;;;18.42;76.22
64095;BME280;50353;51.420;5.682;2022-09-09T07:56:07;100479.13;;;18.17;77.00
64095;BME280;50353;51.420;5.682;2022-09-09T07:58:33;100477.38;;;18.08;77.62
64095;BME280;50353;51.420;5.682;2022-09-09T08:00:58;100477.06;;;18.11;76.91
64095;BME280;50353;51.420;5.682;2022-09-09T08:03:24;100477.06;;;18.11;77.63
64095;BME280;50353;51.420;5.682;2022-09-09T08:05:49;100469.97;;;18.20;78.06
64095;BME280;50353;51.420;5.682;2022-09-09T08:08:14;100470.00;;;17.92;78.56
64095;BME280;50353;51.420;5.682;2022-09-09T08:10:41;100482.09;;;18.14;77.17
64095;BME280;50353;51.420;5.682;2022-09-09T08:13:06;100480.59;;;18.66;75.82
64095;BME280;50353;51.420;5.682;2022-09-09T08:15:31;100476.00;;;18.58;75.51
64095;BME280;50353;51.420;5.682;2022-09-09T08:17:57;100484.66;;;18.52;75.67
64095;BME280;50353;51.420;5.682;2022-09-09T08:20:22;100483.38;;;18.56;75.20
64095;BME280;50353;51.420;5.682;2022-09-09T08:22:48;100494.75;;;18.58;75.33
64095;BME280;50353;51.420;5.682;2022-09-09T08:25:15;100491.13;;;18.13;77.27
64095;BME280;50353;51.420;5.682;2022-09-09T08:27:40;100489.63;;;18.29;76.04
64095;BME280;50353;51.420;5.682;2022-09-09T08:30:06;100485.31;;;18.00;77.13
64095;BME280;50353;51.420;5.682;2022-09-09T08:32:31;100484.19;;;18.20;77.13
64095;BME280;50353;51.420;5.682;2022-09-09T08:34:56;100491.19;;;18.03;77.13
64095;BME280;50353;51.420;5.682;2022-09-09T08:37:22;100499.88;;;18.33;76.03
64095;BME280;50353;51.420;5.682;2022-09-09T08:39:47;100488.03;;;18.54;75.28
64095;BME280;50353;51.420;5.682;2022-09-09T08:42:35;100500.56;;;18.53;75.22
64095;BME280;50353;51.420;5.682;2022-09-09T08:45:14;100496.53;;;18.49;74.79
64095;BME280;50353;51.420;5.682;2022-09-09T08:48:01;100496.13;;;18.62;74.47
64095;BME280;50353;51.420;5.682;2022-09-09T08:50:30;100489.88;;;18.53;74.02
64095;BME280;50353;51.420;5.682;2022-09-09T08:55:49;100496.44;;;18.23;76.49
64095;BME280;50353;51.420;5.682;2022-09-09T08:58:21;100488.00;;;18.18;75.12
64095;BME280;50353;51.420;5.682;2022-09-09T09:06:06;100496.13;;;18.44;74.28
64095;BME280;50353;51.420;5.682;2022-09-09T09:08:54;100499.81;;;18.61;74.52
64095;BME280;50353;51.420;5.682;2022-09-09T09:11:25;100506.91;;;18.70;74.38
64095;BME280;50353;51.420;5.682;2022-09-09T09:14:26;100512.03;;;18.64;73.80
64095;BME280;50353;51.420;5.682;2022-09-09T09:17:00;100511.63;;;18.22;75.36
64095;BME280;50353;51.420;5.682;2022-09-09T09:19:28;100512.91;;;18.46;74.17
64095;BME280;50353;51.420;5.682;2022-09-09T09:22:14;100514.38;;;18.31;74.76
64095;BME280;50353;51.420;5.682;2022-09-09T09:27:13;100515.00;;;18.24;75.74
64095;BME280;50353;51.420;5.682;2022-09-09T09:29:41;100518.09;;;18.66;72.58
64095;BME280;50353;51.420;5.682;2022-09-09T09:32:13;100523.63;;;18.36;74.13
64095;BME280;50353;51.420;5.682;2022-09-09T09:34:40;100523.44;;;18.66;73.64
64095;BME280;50353;51.420;5.682;2022-09-09T09:37:12;100509.09;;;18.21;74.64
64095;BME280;50353;51.420;5.682;2022-09-09T09:39:42;100515.41;;;18.48;73.91
64095;BME280;50353;51.420;5.682;2022-09-09T09:42:10;100529.06;;;18.27;73.67
64095;BME280;50353;51.420;5.682;2022-09-09T09:44:39;100507.06;;;18.51;73.30
64095;BME280;50353;51.420;5.682;2022-09-09T09:47:16;100510.19;;;18.28;74.74
64095;BME280;50353;51.420;5.682;2022-09-09T09:49:51;100514.59;;;18.19;74.96
64095;BME280;50353;51.420;5.682;2022-09-09T09:52:21;100513.19;;;18.43;73.24
64095;BME280;50353;51.420;5.682;2022-09-09T09:54:47;100512.03;;;18.64;72.24
64095;BME280;50353;51.420;5.682;2022-09-09T09:57:15;100508.22;;;18.48;73.41
64095;BME280;50353;51.420;5.682;2022-09-09T09:59:41;100515.88;;;18.79;72.65
64095;BME280;50353;51.420;5.682;2022-09-09T10:02:22;100522.91;;;18.80;72.56
64095;BME280;50353;51.420;5.682;2022-09-09T10:05:24;100526.44;;;18.63;73.21
64095;BME280;50353;51.420;5.682;2022-09-09T10:08:12;100521.53;;;18.76;72.96
64095;BME280;50353;51.420;5.682;2022-09-09T10:10:51;100507.78;;;18.71;72.72
64095;BME280;50353;51.420;5.682;2022-09-09T10:19:00;100532.47;;;18.65;72.51
64095;BME280;50353;51.420;5.682;2022-09-09T10:26:55;100504.31;;;18.61;73.64
64095;BME280;50353;51.420;5.682;2022-09-09T10:29:38;100518.25;;;18.46;74.29
64095;BME280;50353;51.420;5.682;2022-09-09T10:35:04;100524.66;;;18.53;74.86
64095;BME280;50353;51.420;5.682;2022-09-09T10:37:52;100527.19;;;18.37;76.43
64095;BME280;50353;51.420;5.682;2022-09-09T10:40:41;100520.09;;;18.00;79.42
64095;BME280;50353;51.420;5.682;2022-09-09T10:46:09;100524.84;;;18.24;80.82
64095;BME280;50353;51.420;5.682;2022-09-09T10:57:04;100518.94;;;17.65;83.89
64095;BME280;50353;51.420;5.682;2022-09-09T10:59:35;100522.59;;;17.64;83.76
64095;BME280;50353;51.420;5.682;2022-09-09T11:02:27;100525.03;;;17.95;83.33
64095;BME280;50353;51.420;5.682;2022-09-09T11:05:01;100529.28;;;17.78;84.88
64095;BME280;50353;51.420;5.682;2022-09-09T11:07:34;100533.34;;;17.44;85.99
64095;BME280;50353;51.420;5.682;2022-09-09T11:10:11;100526.78;;;17.66;86.14
64095;BME280;50353;51.420;5.682;2022-09-09T11:12:43;100538.81;;;17.52;85.91
64095;BME280;50353;51.420;5.682;2022-09-09T11:15:29;100528.03;;;17.34;88.10
64095;BME280;50353;51.420;5.682;2022-09-09T11:18:00;100538.28;;;17.39;89.20
64095;BME280;50353;51.420;5.682;2022-09-09T11:20:26;100533.59;;;17.51;88.38
64095;BME280;50353;51.420;5.682;2022-09-09T11:22:56;100534.66;;;17.68;87.30
64095;BME280;50353;51.420;5.682;2022-09-09T11:25:37;100549.88;;;18.05;85.03
64095;BME280;50353;51.420;5.682;2022-09-09T11:31:37;100521.09;;;17.79;87.40
64095;BME280;50353;51.420;5.682;2022-09-09T11:34:23;100526.34;;;17.81;87.68
64095;BME280;50353;51.420;5.682;2022-09-09T11:39:58;100525.69;;;17.97;88.16
64095;BME280;50353;51.420;5.682;2022-09-09T11:42:29;100528.97;;;18.18;88.12
64095;BME280;50353;51.420;5.682;2022-09-09T11:44:54;100530.50;;;18.49;86.57
64095;BME280;50353;51.420;5.682;2022-09-09T11:47:28;100523.47;;;18.20;89.85
64095;BME280;50353;51.420;5.682;2022-09-09T11:50:40;100531.81;;;18.35;87.93
64095;BME280;50353;51.420;5.682;2022-09-09T11:52:43;100525.41;;;18.46;87.90
64095;BME280;50353;51.420;5.682;2022-09-09T11:58:00;100519.72;;;18.13;88.81
64095;BME280;50353;51.420;5.682;2022-09-09T12:00:36;100521.75;;;17.91;88.08
64095;BME280;50353;51.420;5.682;2022-09-09T12:03:02;100528.16;;;18.36;86.71
64095;BME280;50353;51.420;5.682;2022-09-09T12:05:36;100517.03;;;18.13;86.98
64095;BME280;50353;51.420;5.682;2022-09-09T12:08:04;100524.41;;;18.29;85.99
64095;BME280;50353;51.420;5.682;2022-09-09T12:10:33;100521.81;;;18.19;88.13
64095;BME280;50353;51.420;5.682;2022-09-09T12:13:21;100520.59;;;18.03;89.01
64095;BME280;50353;51.420;5.682;2022-09-09T12:15:58;100529.38;;;18.23;87.39
64095;BME280;50353;51.420;5.682;2022-09-09T12:18:35;100517.44;;;17.80;89.17
64095;BME280;50353;51.420;5.682;2022-09-09T12:24:01;100521.22;;;18.43;85.00
64095;BME280;50353;51.420;5.682;2022-09-09T12:26:38;100518.84;;;18.40;86.39
64095;BME280;50353;51.420;5.682;2022-09-09T12:32:06;100516.69;;;19.16;81.80
64095;BME280;50353;51.420;5.682;2022-09-09T12:34:47;100508.31;;;18.92;84.62
64095;BME280;50353;51.420;5.682;2022-09-09T12:37:29;100500.13;;;19.47;81.06
64095;BME280;50353;51.420;5.682;2022-09-09T12:39:59;100497.59;;;19.45;79.70
64095;BME280;50353;51.420;5.682;2022-09-09T12:42:25;100503.81;;;19.19;82.15
64095;BME280;50353;51.420;5.682;2022-09-09T12:47:18;100507.50;;;19.18;80.47
64095;BME280;50353;51.420;5.682;2022-09-09T12:49:44;100501.94;;;19.38;80.11
64095;BME280;50353;51.420;5.682;2022-09-09T12:52:31;100503.84;;;19.28;83.44
64095;BME280;50353;51.420;5.682;2022-09-09T12:55:00;100497.13;;;19.23;80.56
64095;BME280;50353;51.420;5.682;2022-09-09T12:57:35;100497.66;;;19.27;78.98
64095;BME280;50353;51.420;5.682;2022-09-09T13:00:07;100496.66;;;18.66;78.99
64095;BME280;50353;51.420;5.682;2022-09-09T13:02:34;100480.44;;;19.03;78.09
64095;BME280;50353;51.420;5.682;2022-09-09T13:05:14;100495.28;;;18.98;81.08
64095;BME280;50353;51.420;5.682;2022-09-09T13:07:39;100484.69;;;19.14;76.98
64095;BME280;50353;51.420;5.682;2022-09-09T13:10:05;100500.34;;;19.01;77.00
64095;BME280;50353;51.420;5.682;2022-09-09T13:12:31;100486.47;;;19.05;76.61
64095;BME280;50353;51.420;5.682;2022-09-09T13:14:56;100479.34;;;19.14;75.49
64095;BME280;50353;51.420;5.682;2022-09-09T13:17:24;100473.50;;;19.19;75.44
64095;BME280;50353;51.420;5.682;2022-09-09T13:19:51;100477.91;;;19.02;76.54
64095;BME280;50353;51.420;5.682;2022-09-09T13:22:34;100463.75;;;19.44;76.56
64095;BME280;50353;51.420;5.682;2022-09-09T13:25:18;100470.00;;;19.87;74.84
64095;BME280;50353;51.420;5.682;2022-09-09T13:27:57;100465.88;;;19.67;76.05
64095;BME280;50353;51.420;5.682;2022-09-09T13:30:29;100463.34;;;20.00;73.56
64095;BME280;50353;51.420;5.682;2022-09-09T13:35:32;100465.53;;;19.96;72.22
64095;BME280;50353;51.420;5.682;2022-09-09T13:37:59;100464.31;;;19.99;71.57
64095;BME280;50353;51.420;5.682;2022-09-09T13:40:25;100468.41;;;20.03;73.35
64095;BME280;50353;51.420;5.682;2022-09-09T13:42:55;100460.59;;;19.83;72.88
64095;BME280;50353;51.420;5.682;2022-09-09T13:45:24;100465.28;;;19.47;75.09
64095;BME280;50353;51.420;5.682;2022-09-09T13:47:52;100466.63;;;19.16;79.06
64095;BME280;50353;51.420;5.682;2022-09-09T13:50:29;100464.06;;;19.41;78.05
64095;BME280;50353;51.420;5.682;2022-09-09T13:52:56;100458.63;;;19.93;76.58
64095;BME280;50353;51.420;5.682;2022-09-09T13:55:24;100466.31;;;19.88;78.76
64095;BME280;50353;51.420;5.682;2022-09-09T13:57:54;100459.78;;;19.83;77.00
64095;BME280;50353;51.420;5.682;2022-09-09T14:00:21;100457.44;;;19.88;73.61
64095;BME280;50353;51.420;5.682;2022-09-09T14:02:47;100457.59;;;19.95;74.30
64095;BME280;50353;51.420;5.682;2022-09-09T14:05:13;100460.16;;;19.96;73.00
64095;BME280;50353;51.420;5.682;2022-09-09T14:07:39;100457.16;;;19.65;74.87
64095;BME280;50353;51.420;5.682;2022-09-09T14:10:06;100455.81;;;20.03;74.32
64095;BME280;50353;51.420;5.682;2022-09-09T14:12:31;100455.13;;;20.01;73.10
64095;BME280;50353;51.420;5.682;2022-09-09T14:14:56;100459.69;;;20.25;71.64
64095;BME280;50353;51.420;5.682;2022-09-09T14:17:22;100460.28;;;19.95;73.01
64095;BME280;50353;51.420;5.682;2022-09-09T14:19:47;100453.66;;;20.15;73.12
64095;BME280;50353;51.420;5.682;2022-09-09T14:22:13;100455.34;;;20.33;70.36
64095;BME280;50353;51.420;5.682;2022-09-09T14:24:39;100454.00;;;20.37;71.09